Time;durP1;ratioP1;P1;durP2;ratioP2;P2;SDS_P1;SDS_P2;PMS_P1;PMS_P2;Temp;Humidity;BMP_temperature;BMP_pressure;BME280_temperature;BME280_humidity;BME280_pressure;Samples;Min_cycle;Max_cycle;Signal;HPM_P1;HPM_P2
2021/11/19 00:00:47;;;;;;;24.10;10.77;;;;;;;1.81;97.94;96895.06;4959801;28;20251;-80
2021/11/19 00:03:13;;;;;;;19.63;10.20;;;;;;;1.89;98.18;96887.06;4961093;28;20320;-79
2021/11/19 00:05:40;;;;;;;20.70;9.60;;;;;;;1.84;98.09;96883.84;4961944;28;20285;-80
2021/11/19 00:08:06;;;;;;;19.50;10.03;;;;;;;1.84;98.16;96887.25;4976821;28;20702;-80
2021/11/19 00:10:32;;;;;;;21.40;9.50;;;;;;;1.84;98.47;96894.09;4962637;28;20340;-80
2021/11/19 00:12:57;;;;;;;17.53;9.87;;;;;;;1.76;97.91;96889.28;4977198;28;20208;-79
2021/11/19 00:15:23;;;;;;;18.07;9.70;;;;;;;1.83;98.79;96885.59;4979242;28;20188;-80
2021/11/19 00:17:48;;;;;;;23.27;10.23;;;;;;;1.81;98.51;96884.81;4978175;28;20233;-79
2021/11/19 00:20:17;;;;;;;21.90;8.97;;;;;;;1.78;98.42;96897.75;4977783;28;20291;-79
2021/11/19 00:22:43;;;;;;;21.87;9.33;;;;;;;1.78;98.24;96894.38;4960996;28;20208;-80
2021/11/19 00:25:09;;;;;;;15.40;9.27;;;;;;;1.72;98.38;96895.44;4977271;28;20180;-81
2021/11/19 00:27:37;;;;;;;22.87;9.13;;;;;;;1.75;98.41;96891.91;4961444;28;20231;-81
2021/11/19 00:30:06;;;;;;;17.70;8.53;;;;;;;1.74;98.31;96895.38;4961622;28;20679;-79
2021/11/19 00:32:31;;;;;;;20.70;8.83;;;;;;;1.70;98.18;96894.66;4976625;28;20676;-80
2021/11/19 00:34:57;;;;;;;17.27;9.17;;;;;;;1.75;98.53;96894.47;4977823;28;20232;-79
2021/11/19 00:37:22;;;;;;;25.10;9.67;;;;;;;1.73;99.04;96894.53;4977383;28;20184;-80
2021/11/19 00:39:48;;;;;;;21.47;8.87;;;;;;;1.68;98.72;96892.16;4978111;28;20177;-80
2021/11/19 00:42:14;;;;;;;20.67;9.40;;;;;;;1.65;98.86;96894.00;4960938;28;20294;-79
2021/11/19 00:44:40;;;;;;;14.47;8.70;;;;;;;1.65;98.63;96896.56;4977786;28;20232;-80
2021/11/19 00:47:06;;;;;;;19.17;8.47;;;;;;;1.59;98.95;96897.66;4979936;28;20184;-79
2021/11/19 00:49:34;;;;;;;16.30;7.87;;;;;;;1.52;98.82;96896.22;4977743;28;20228;-80
2021/11/19 00:52:01;;;;;;;16.80;8.67;;;;;;;1.47;98.87;96893.00;4976465;28;20200;-79
2021/11/19 00:54:27;;;;;;;13.97;7.90;;;;;;;1.40;98.34;96891.56;4977104;28;20206;-80
2021/11/19 00:56:57;;;;;;;13.83;8.27;;;;;;;1.39;98.59;96900.97;4962064;28;20703;-80
2021/11/19 00:59:27;;;;;;;17.83;8.03;;;;;;;1.30;97.95;96896.19;4977370;28;20192;-80
2021/11/19 01:01:57;;;;;;;13.93;7.77;;;;;;;1.23;98.53;96902.44;4961623;28;20287;-80
2021/11/19 01:04:22;;;;;;;11.37;7.40;;;;;;;1.21;98.48;96896.53;4978063;28;20177;-81
2021/11/19 01:06:49;;;;;;;13.90;6.97;;;;;;;1.20;98.56;96887.19;4961324;28;20640;-79
2021/11/19 01:09:21;;;;;;;19.00;8.30;;;;;;;1.19;98.81;96892.38;4959252;28;20365;-79
2021/11/19 01:11:47;;;;;;;15.03;7.33;;;;;;;1.14;98.42;96895.94;4974711;28;20614;-80
2021/11/19 01:14:19;;;;;;;12.07;7.27;;;;;;;1.13;98.60;96889.16;4977078;28;20184;-79
2021/11/19 01:16:50;;;;;;;19.53;7.73;;;;;;;1.12;98.87;96889.22;4976997;28;20213;-79
2021/11/19 01:19:22;;;;;;;13.97;7.53;;;;;;;1.11;98.40;96895.22;4977008;28;20184;-81
2021/11/19 01:21:53;;;;;;;14.93;8.27;;;;;;;1.07;98.46;96899.63;4959535;28;20208;-79
2021/11/19 01:24:19;;;;;;;15.93;7.10;;;;;;;1.03;98.34;96899.78;4976552;28;20195;-80
2021/11/19 01:26:46;;;;;;;15.53;7.73;;;;;;;1.02;98.15;96898.97;4976527;28;20180;-79
2021/11/19 01:29:14;;;;;;;11.80;6.27;;;;;;;0.99;98.31;96900.81;4977512;28;20283;-80
2021/11/19 01:31:43;;;;;;;18.40;7.20;;;;;;;0.98;98.21;96899.16;4959012;28;20694;-81
2021/11/19 01:34:09;;;;;;;10.30;6.83;;;;;;;0.93;98.22;96903.56;4976428;28;20184;-80
2021/11/19 01:36:35;;;;;;;14.33;7.10;;;;;;;0.92;98.50;96899.34;4967928;28;20189;-80
2021/11/19 01:39:00;;;;;;;11.23;6.77;;;;;;;0.88;98.25;96903.72;4941572;29;20189;-80
2021/11/19 01:41:37;;;;;;;15.93;7.23;;;;;;;0.87;98.52;96901.22;4939949;29;20257;-80
2021/11/19 01:44:16;;;;;;;13.33;6.20;;;;;;;0.82;98.15;96899.69;4957635;28;20243;-80
2021/11/19 01:46:44;;;;;;;13.23;6.87;;;;;;;0.83;98.34;96906.47;4945968;28;20766;-81
2021/11/19 01:49:10;;;;;;;14.53;6.23;;;;;;;0.81;98.65;96905.69;4963630;28;20215;-81
2021/11/19 01:52:01;;;;;;;15.40;7.00;;;;;;;0.77;98.74;96899.00;4956572;28;20205;-80
2021/11/19 01:54:37;;;;;;;13.20;6.60;;;;;;;0.81;98.39;96899.75;4957014;29;20189;-80
2021/11/19 01:57:18;;;;;;;15.77;6.93;;;;;;;0.78;98.66;96907.50;4973597;28;20187;-81
2021/11/19 01:59:51;;;;;;;12.13;7.30;;;;;;;0.75;98.55;96903.34;4958142;29;20525;-79
2021/11/19 02:02:20;;;;;;;16.27;7.13;;;;;;;0.73;98.71;96907.69;4956239;28;20299;-78
2021/11/19 02:04:57;;;;;;;14.83;7.10;;;;;;;0.75;99.05;96902.53;4957246;28;20552;-78
2021/11/19 02:07:30;;;;;;;15.67;7.53;;;;;;;0.80;98.66;96900.66;4956618;29;20196;-80
2021/11/19 02:10:05;;;;;;;11.87;7.13;;;;;;;0.81;98.39;96892.91;4955929;29;20665;-80
2021/11/19 02:12:45;;;;;;;17.97;7.00;;;;;;;0.83;98.46;96897.97;4955938;28;20209;-79
2021/11/19 02:15:15;;;;;;;10.63;6.90;;;;;;;0.91;99.02;96907.94;4956825;29;20633;-80
2021/11/19 02:17:43;;;;;;;13.60;7.17;;;;;;;0.95;99.02;96897.50;4957214;28;20178;-80
2021/11/19 02:20:12;;;;;;;15.73;8.70;;;;;;;0.99;98.90;96905.91;4940676;29;20189;-81
2021/11/19 02:22:45;;;;;;;13.40;8.10;;;;;;;1.00;98.63;96908.41;4940142;28;20236;-79
2021/11/19 02:25:22;;;;;;;12.33;7.77;;;;;;;1.04;98.90;96911.69;4957001;29;20289;-80
2021/11/19 02:27:52;;;;;;;18.97;8.03;;;;;;;1.02;98.52;96904.06;4956758;28;20209;-81
2021/11/19 02:30:39;;;;;;;13.97;7.33;;;;;;;1.06;98.84;96899.66;4940815;29;20552;-81
2021/11/19 02:33:09;;;;;;;16.13;7.23;;;;;;;1.12;99.04;96902.00;4923495;28;20219;-80
2021/11/19 02:35:43;;;;;;;13.77;7.63;;;;;;;1.11;99.07;96900.34;4940005;29;20201;-79
2021/11/19 02:38:12;;;;;;;12.33;7.93;;;;;;;1.13;98.88;96894.25;4955481;29;20235;-80
2021/11/19 02:40:39;;;;;;;14.63;8.00;;;;;;;1.15;98.87;96901.91;4956066;29;20340;-79
2021/11/19 02:43:11;;;;;;;15.53;8.67;;;;;;;1.17;98.99;96899.28;4939582;29;20232;-80
2021/11/19 02:45:43;;;;;;;17.30;9.03;;;;;;;1.18;99.09;96894.09;4956491;28;20192;-80
2021/11/19 02:48:14;;;;;;;15.77;8.37;;;;;;;1.19;98.99;96882.97;4972306;28;20212;-80
2021/11/19 02:50:40;;;;;;;14.43;8.47;;;;;;;1.18;99.04;96881.31;4940931;29;20192;-80
2021/11/19 02:53:06;;;;;;;16.73;8.53;;;;;;;1.18;98.99;96876.19;4939492;29;20201;-80
2021/11/19 02:55:39;;;;;;;14.40;8.70;;;;;;;1.18;99.21;96881.31;4956023;29;20255;-80
2021/11/19 02:58:08;;;;;;;19.07;9.37;;;;;;;1.17;98.88;96877.09;4955787;28;20320;-80
2021/11/19 03:00:45;;;;;;;19.10;8.83;;;;;;;1.17;99.02;96871.16;4956110;29;20178;-80
2021/11/19 03:03:11;;;;;;;15.77;10.13;;;;;;;1.16;99.16;96874.59;4956299;28;20564;-81
2021/11/19 03:05:36;;;;;;;19.10;9.10;;;;;;;1.12;99.45;96877.25;4940634;29;20192;-80
2021/11/19 03:08:01;;;;;;;16.77;9.43;;;;;;;1.08;99.01;96883.38;4939178;29;20300;-80
2021/11/19 03:10:34;;;;;;;15.70;8.63;;;;;;;1.02;99.02;96875.94;4955817;28;20188;-80
2021/11/19 03:13:02;;;;;;;23.20;9.10;;;;;;;0.97;99.22;96870.16;4954783;28;20205;-79
2021/11/19 03:15:31;;;;;;;16.30;8.50;;;;;;;0.94;98.86;96872.00;4955299;29;20196;-80
2021/11/19 03:17:57;;;;;;;14.67;8.57;;;;;;;0.90;98.99;96883.25;4954808;28;20272;-78
2021/11/19 03:20:24;;;;;;;16.57;8.90;;;;;;;0.84;98.62;96882.56;4955069;29;20277;-80
2021/11/19 03:22:50;;;;;;;16.73;8.43;;;;;;;0.84;98.99;96881.72;4953989;28;20569;-80
2021/11/19 03:25:23;;;;;;;17.23;8.87;;;;;;;0.84;98.78;96886.84;4938954;29;20225;-79
2021/11/19 03:27:49;;;;;;;20.30;9.83;;;;;;;0.86;99.40;96882.50;4955158;28;20209;-80
2021/11/19 03:30:16;;;;;;;23.83;10.87;;;;;;;0.92;99.80;96876.34;4954780;28;20705;-79
2021/11/19 03:32:42;;;;;;;27.57;10.40;;;;;;;0.90;99.45;96880.69;4938476;29;20319;-79
2021/11/19 03:35:08;;;;;;;17.80;10.50;;;;;;;0.94;99.68;96879.66;4954629;28;20242;-80
2021/11/19 03:37:34;;;;;;;19.77;10.37;;;;;;;0.92;100.00;96879.72;4955473;28;20644;-81
2021/11/19 03:39:59;;;;;;;21.40;9.87;;;;;;;0.88;99.86;96875.59;4955344;28;20177;-80
2021/11/19 03:42:25;;;;;;;15.70;9.53;;;;;;;0.85;99.62;96888.50;4954583;28;20211;-81
2021/11/19 03:44:59;;;;;;;24.50;9.83;;;;;;;0.79;99.51;96892.09;4939748;29;20189;-80
2021/11/19 03:47:40;;;;;;;16.37;8.50;;;;;;;0.74;99.04;96890.63;4940130;29;20185;-80
2021/11/19 03:50:23;;;;;;;16.80;9.30;;;;;;;0.66;98.94;96890.06;4971126;28;20185;-80
2021/11/19 03:52:48;;;;;;;16.57;9.07;;;;;;;0.64;99.18;96890.13;4971278;28;20201;-79
2021/11/19 03:55:23;;;;;;;17.13;8.17;;;;;;;0.60;98.94;96890.28;4939148;29;20236;-80
2021/11/19 03:57:48;;;;;;;15.50;7.53;;;;;;;0.60;99.18;96892.81;4955351;29;20168;-78
2021/11/19 04:00:18;;;;;;;14.20;8.03;;;;;;;0.59;99.04;96897.09;4939274;29;20204;-80
2021/11/19 04:02:44;;;;;;;14.13;8.23;;;;;;;0.65;98.89;96896.91;4971155;28;20213;-82
2021/11/19 04:05:10;;;;;;;15.83;8.00;;;;;;;0.66;99.19;96897.72;4939466;29;20275;-80
2021/11/19 04:07:35;;;;;;;16.23;8.17;;;;;;;0.69;99.17;96895.06;4954161;29;20177;-78
2021/11/19 04:10:01;;;;;;;16.87;9.57;;;;;;;0.68;99.40;96886.56;4939648;29;20561;-79
2021/11/19 04:12:26;;;;;;;15.13;8.73;;;;;;;0.76;99.30;96897.34;4938293;29;20258;-78
2021/11/19 04:14:52;;;;;;;19.97;9.57;;;;;;;0.78;99.41;96898.13;4940358;29;20193;-80
2021/11/19 04:17:18;;;;;;;20.10;9.63;;;;;;;0.83;99.38;96909.03;4941526;29;20195;-80
2021/11/19 04:19:43;;;;;;;19.07;9.23;;;;;;;0.89;99.37;96907.16;4942762;29;20184;-80
2021/11/19 04:22:11;;;;;;;19.97;9.93;;;;;;;0.93;99.83;96906.97;4959037;28;20197;-81
2021/11/19 04:24:45;;;;;;;15.03;8.93;;;;;;;0.96;99.29;96906.84;4958761;28;20196;-79
2021/11/19 04:27:11;;;;;;;18.13;10.47;;;;;;;1.02;99.86;96908.34;4956961;29;20649;-80
2021/11/19 04:29:36;;;;;;;21.03;10.57;;;;;;;1.08;99.48;96908.97;4970837;28;20225;-80
2021/11/19 04:32:02;;;;;;;20.53;9.90;;;;;;;1.14;99.80;96906.16;4958076;28;20228;-80
2021/11/19 04:34:28;;;;;;;18.13;10.63;;;;;;;1.18;100.00;96900.94;4959497;29;20303;-81
2021/11/19 04:36:53;;;;;;;25.27;10.90;;;;;;;1.21;100.00;96901.66;4941484;29;20185;-81
2021/11/19 04:39:19;;;;;;;23.33;10.27;;;;;;;1.28;100.00;96897.97;4958046;28;20259;-81
2021/11/19 04:41:44;;;;;;;19.93;10.40;;;;;;;1.31;99.87;96913.22;4940890;29;20203;-80
2021/11/19 04:44:10;;;;;;;17.27;9.13;;;;;;;1.30;100.00;96909.00;4941720;29;20177;-81
2021/11/19 04:46:35;;;;;;;17.33;10.40;;;;;;;1.36;99.88;96913.88;4960136;28;20177;-80
2021/11/19 04:49:01;;;;;;;20.97;11.43;;;;;;;1.38;100.00;96913.81;4961184;28;20208;-81
2021/11/19 04:51:29;;;;;;;18.43;10.63;;;;;;;1.41;100.00;96913.69;4959951;28;20225;-81
2021/11/19 04:53:54;;;;;;;19.87;10.40;;;;;;;1.45;100.00;96909.31;4960629;28;20181;-80
2021/11/19 04:56:21;;;;;;;19.83;11.27;;;;;;;1.48;100.00;96906.63;4944741;29;20344;-80
2021/11/19 04:58:48;;;;;;;18.47;10.70;;;;;;;1.50;100.00;96905.66;4944145;29;20177;-79
2021/11/19 05:01:18;;;;;;;22.00;11.43;;;;;;;1.57;100.00;96906.25;4960318;28;20187;-81
2021/11/19 05:03:44;;;;;;;21.93;10.40;;;;;;;1.61;100.00;96900.97;4943624;29;20216;-80
2021/11/19 05:06:09;;;;;;;23.90;12.07;;;;;;;1.63;100.00;96903.47;4960538;28;20181;-80
2021/11/19 05:08:36;;;;;;;27.10;13.50;;;;;;;1.69;100.00;96905.81;4943671;29;20213;-81
2021/11/19 05:11:02;;;;;;;29.57;14.13;;;;;;;1.77;100.00;96893.53;4944258;28;20248;-80
2021/11/19 05:13:30;;;;;;;31.30;15.47;;;;;;;1.82;100.00;96893.34;4959671;28;20474;-80
2021/11/19 05:15:57;;;;;;;30.57;14.83;;;;;;;1.90;100.00;96889.56;4944757;29;20233;-81
2021/11/19 05:18:23;;;;;;;33.53;15.87;;;;;;;1.97;100.00;96883.31;4943715;29;20527;-81
2021/11/19 05:20:50;;;;;;;32.70;15.27;;;;;;;2.02;100.00;96879.72;4944121;29;20549;-79
2021/11/19 05:23:16;;;;;;;35.07;16.00;;;;;;;2.03;100.00;96877.06;4943311;29;20251;-80
2021/11/19 05:25:43;;;;;;;25.60;15.87;;;;;;;2.05;100.00;96879.59;4960244;28;20185;-80
2021/11/19 05:28:10;;;;;;;29.47;15.10;;;;;;;2.03;100.00;96879.63;4960305;28;20248;-80
2021/11/19 05:30:35;;;;;;;22.60;14.50;;;;;;;2.06;100.00;96886.38;4943714;29;20185;-80
2021/11/19 05:33:01;;;;;;;24.10;15.20;;;;;;;2.04;100.00;96880.50;4959366;28;20202;-80
2021/11/19 05:35:26;;;;;;;18.43;12.07;;;;;;;2.03;100.00;96881.38;4960200;28;20253;-80
2021/11/19 05:37:52;;;;;;;24.37;14.43;;;;;;;2.00;100.00;96882.34;4959902;28;20183;-80
2021/11/19 05:40:19;;;;;;;22.40;13.13;;;;;;;1.97;100.00;96878.19;4943823;29;20191;-81
2021/11/19 05:42:46;;;;;;;23.07;13.67;;;;;;;1.93;100.00;96878.34;4959683;28;20229;-81
2021/11/19 05:45:13;;;;;;;24.00;13.30;;;;;;;1.87;100.00;96882.03;4977351;28;20827;-81
2021/11/19 05:47:38;;;;;;;28.67;14.10;;;;;;;1.79;100.00;96876.38;4948187;29;20213;-80
2021/11/19 05:50:06;;;;;;;27.10;14.43;;;;;;;1.75;100.00;96887.63;4962888;29;20701;-80
2021/11/19 05:52:32;;;;;;;25.70;13.37;;;;;;;1.67;100.00;96879.41;4976932;28;20260;-83
2021/11/19 05:55:00;;;;;;;19.40;13.00;;;;;;;1.59;100.00;96872.03;4967767;28;20177;-81
2021/11/19 05:57:25;;;;;;;24.93;12.87;;;;;;;1.52;100.00;96882.59;5011720;28;20513;-78
2021/11/19 05:59:50;;;;;;;20.17;9.37;;;;;;;1.49;100.00;96883.53;4964824;28;20211;-80
2021/11/19 06:02:18;;;;;;;17.97;9.50;;;;;;;1.45;100.00;96881.97;4974659;28;20718;-79
2021/11/19 06:04:45;;;;;;;17.93;9.07;;;;;;;1.39;100.00;96882.22;4958640;28;20181;-80
2021/11/19 06:07:10;;;;;;;17.33;9.13;;;;;;;1.33;100.00;96896.09;4974795;28;20228;-80
2021/11/19 06:09:39;;;;;;;16.60;9.73;;;;;;;1.30;100.00;96900.47;4953390;28;20217;-80
2021/11/19 06:12:10;;;;;;;15.73;9.57;;;;;;;1.24;100.00;96893.06;4966582;28;20211;-83
2021/11/19 06:14:38;;;;;;;14.70;9.10;;;;;;;1.22;100.00;96898.22;4977588;28;20184;-83
2021/11/19 06:17:12;;;;;;;16.40;11.37;;;;;;;1.19;100.00;96903.44;4958826;28;20449;-82
2021/11/19 06:19:41;;;;;;;18.90;11.20;;;;;;;1.11;100.00;96906.28;4956799;29;20181;-82
2021/11/19 06:22:17;;;;;;;21.67;13.73;;;;;;;1.06;100.00;96908.19;4956723;28;20222;-80
2021/11/19 06:24:44;;;;;;;19.37;11.80;;;;;;;1.01;100.00;96904.13;4973795;28;20222;-80
2021/11/19 06:27:11;;;;;;;19.77;13.17;;;;;;;0.97;100.00;96910.22;4947691;29;20576;-80
2021/11/19 06:29:37;;;;;;;19.13;11.20;;;;;;;0.93;100.00;96916.38;4969904;28;20208;-80
2021/11/19 06:32:03;;;;;;;18.33;9.33;;;;;;;0.93;100.00;96926.59;4973368;28;20266;-80
2021/11/19 06:34:28;;;;;;;18.77;10.30;;;;;;;0.88;100.00;96920.81;4953631;28;20249;-81
2021/11/19 06:36:55;;;;;;;15.37;9.37;;;;;;;0.80;100.00;96924.50;4967818;28;20191;-79
2021/11/19 06:39:21;;;;;;;14.27;9.43;;;;;;;0.77;99.96;96932.25;4954536;28;20583;-78
2021/11/19 06:41:47;;;;;;;20.17;9.70;;;;;;;0.72;100.00;96941.81;4970952;28;20211;-79
2021/11/19 06:44:13;;;;;;;22.13;10.80;;;;;;;0.68;100.00;96936.84;4975205;28;20189;-79
2021/11/19 06:46:38;;;;;;;18.03;10.50;;;;;;;0.67;100.00;96932.63;4975087;28;20185;-79
2021/11/19 06:49:05;;;;;;;19.17;11.30;;;;;;;0.66;100.00;96936.09;4958095;28;20231;-78
2021/11/19 06:51:31;;;;;;;19.20;10.27;;;;;;;0.65;99.81;96942.91;4975025;28;20254;-79
2021/11/19 06:53:56;;;;;;;18.90;10.43;;;;;;;0.65;100.00;96950.59;4956930;28;20193;-79
2021/11/19 06:56:21;;;;;;;22.53;10.33;;;;;;;0.66;100.00;96938.63;4976477;28;20555;-80
2021/11/19 06:58:48;;;;;;;17.80;11.30;;;;;;;0.68;100.00;96924.91;4975923;28;20184;-78
2021/11/19 07:01:13;;;;;;;20.83;12.03;;;;;;;0.73;100.00;96930.72;4957409;28;20192;-79
2021/11/19 07:03:39;;;;;;;26.13;13.50;;;;;;;0.74;100.00;96932.38;4957448;28;20208;-81
2021/11/19 07:06:04;;;;;;;29.73;16.73;;;;;;;0.79;99.89;96942.41;4972048;28;20579;-79
2021/11/19 07:08:30;;;;;;;26.57;14.63;;;;;;;0.85;100.00;96942.22;4973987;28;20204;-79
2021/11/19 07:11:02;;;;;;;30.03;18.07;;;;;;;0.88;100.00;96944.66;4972884;28;20235;-80
2021/11/19 07:13:28;;;;;;;30.50;17.60;;;;;;;0.93;100.00;96950.44;5168995;22;20637;-80
2021/11/19 07:15:54;;;;;;;25.60;16.17;;;;;;;0.92;99.50;96960.75;5014821;28;20202;-79
2021/11/19 07:18:20;;;;;;;28.23;16.43;;;;;;;0.96;99.80;96957.16;4998563;28;20194;-79
2021/11/19 07:20:48;;;;;;;31.43;17.67;;;;;;;1.02;99.87;96956.97;5010028;28;20602;-79
2021/11/19 07:36:04;;;;;;;25.03;13.70;;;;;;;1.41;99.57;96967.44;4971804;28;20227;-78
2021/11/19 07:38:30;;;;;;;23.13;13.17;;;;;;;1.50;99.87;96963.72;4956106;28;20231;-78
2021/11/19 07:40:55;;;;;;;22.20;12.47;;;;;;;1.60;99.10;96965.88;4972061;28;20176;-79
2021/11/19 07:43:22;;;;;;;22.63;13.57;;;;;;;1.69;99.16;96972.38;4954964;28;20235;-79
2021/11/19 07:45:48;;;;;;;21.60;13.00;;;;;;;1.79;99.11;96965.19;4955806;28;20196;-79
2021/11/19 07:48:19;;;;;;;22.43;14.50;;;;;;;1.87;99.64;96964.00;4956409;28;20209;-80
2021/11/19 07:50:51;;;;;;;24.20;14.20;;;;;;;1.97;99.82;96960.16;4957169;28;20177;-79
2021/11/19 07:53:17;;;;;;;29.00;16.50;;;;;;;2.10;99.44;96964.78;4953068;29;20197;-80
2021/11/19 07:55:44;;;;;;;27.53;15.13;;;;;;;2.19;99.31;96978.06;4957214;28;20185;-79
2021/11/19 07:58:09;;;;;;;26.13;13.23;;;;;;;2.25;99.37;96979.56;4973831;28;20188;-82
2021/11/19 08:00:38;;;;;;;23.33;13.43;;;;;;;2.36;99.11;96971.44;4952954;28;20284;-79
2021/11/19 08:38:02;;;;;;;;;;;;;;;;;;;;;
2021/11/19 09:22:40;;;;;;;20.50;10.70;;;;;;;4.03;95.04;97016.28;4690154;30;20488;-80
2021/11/19 09:25:10;;;;;;;19.80;10.57;;;;;;;4.18;94.61;97018.16;4659822;30;20212;-80
2021/11/19 09:27:36;;;;;;;18.97;10.47;;;;;;;4.10;94.26;97010.78;4723409;30;20204;-81
2021/11/19 09:30:14;;;;;;;17.83;10.43;;;;;;;4.11;94.13;97016.75;4753610;30;20228;-84
2021/11/19 09:32:41;;;;;;;19.17;9.80;;;;;;;4.34;93.90;97015.69;4779864;29;20223;-81
2021/11/19 09:35:07;;;;;;;13.90;8.33;;;;;;;4.26;93.76;97011.72;4780549;29;20211;-80
2021/11/19 09:37:32;;;;;;;12.23;9.43;;;;;;;4.36;93.37;97009.53;4847086;29;20205;-78
2021/11/19 09:39:58;;;;;;;13.60;8.43;;;;;;;4.14;92.08;97002.00;4882422;29;20507;-81
2021/11/19 09:42:45;;;;;;;13.40;9.07;;;;;;;4.23;92.66;97000.75;4980826;28;20226;-80
2021/11/19 09:45:32;;;;;;;14.70;9.20;;;;;;;4.23;93.26;96996.44;4974745;28;20202;-80
2021/11/19 09:48:16;;;;;;;14.03;8.83;;;;;;;4.17;93.42;96990.78;5010316;28;20215;-80
2021/11/19 09:51:09;;;;;;;14.50;9.20;;;;;;;4.03;93.54;97000.84;4976401;28;20184;-80
2021/11/19 09:54:12;;;;;;;14.27;9.53;;;;;;;3.90;93.92;96987.75;5000198;28;20190;-80
2021/11/19 09:56:49;;;;;;;15.87;9.83;;;;;;;3.92;94.33;96993.66;4985491;28;20269;-80
2021/11/19 09:59:36;;;;;;;20.87;11.67;;;;;;;3.61;95.28;96986.50;5003035;28;20180;-80
2021/11/19 10:02:14;;;;;;;19.30;11.17;;;;;;;3.47;96.46;96988.91;4997224;28;20210;-80
2021/11/19 10:05:19;;;;;;;20.10;11.23;;;;;;;3.57;96.54;96990.97;4989666;28;20196;-80
2021/11/19 10:07:51;;;;;;;16.53;10.57;;;;;;;3.81;96.70;96981.31;4976065;28;20238;-79
2021/11/19 10:10:31;;;;;;;24.20;11.00;;;;;;;3.72;95.62;96986.06;4991720;28;20644;-80
2021/11/19 10:13:06;;;;;;;18.83;11.30;;;;;;;3.90;96.05;96987.75;4974738;28;20574;-78
2021/11/19 10:16:08;;;;;;;18.17;10.27;;;;;;;3.88;94.81;96990.38;4993307;28;20193;-80
2021/11/19 10:18:55;;;;;;;15.77;9.57;;;;;;;4.03;94.82;96988.84;4988890;28;20189;-78
2021/11/19 10:21:32;;;;;;;19.70;10.07;;;;;;;4.30;94.80;96988.44;5000795;28;20832;-77
2021/11/19 10:24:04;;;;;;;13.50;9.30;;;;;;;4.38;93.47;96989.72;4993617;28;20195;-79
2021/11/19 10:26:34;;;;;;;14.47;9.87;;;;;;;4.33;92.70;96985.69;5001146;28;20184;-77
2021/11/19 10:29:01;;;;;;;15.07;9.77;;;;;;;4.43;93.35;96982.63;4993398;28;20203;-80
2021/11/19 10:31:27;;;;;;;16.00;9.47;;;;;;;4.61;92.67;96975.75;4997027;28;20329;-79
2021/11/19 10:34:17;;;;;;;16.83;10.70;;;;;;;4.63;92.41;96981.63;4997581;28;20194;-79
2021/11/19 10:37:03;;;;;;;18.73;10.33;;;;;;;4.64;91.78;96975.56;4980548;28;20184;-80
2021/11/19 10:39:50;;;;;;;16.27;9.70;;;;;;;4.80;91.85;96973.91;4965014;28;20679;-80
2021/11/19 10:42:44;;;;;;;16.33;9.00;;;;;;;4.84;91.49;96977.97;4998909;28;20218;-79
2021/11/19 10:45:19;;;;;;;17.50;10.33;;;;;;;4.77;90.63;96971.50;4992983;28;20275;-79
2021/11/19 10:48:06;;;;;;;21.53;10.20;;;;;;;4.53;90.39;96970.13;4996307;28;20269;-79
2021/11/19 10:51:01;;;;;;;20.50;10.77;;;;;;;4.65;90.32;96966.94;4989099;28;20691;-79
2021/11/19 10:53:44;;;;;;;19.87;9.97;;;;;;;4.68;90.97;96959.09;4975789;28;20191;-80
2021/11/19 10:56:28;;;;;;;20.00;10.90;;;;;;;4.86;90.85;96959.03;5007678;28;20218;-79
2021/11/19 10:58:57;;;;;;;16.50;10.77;;;;;;;4.80;90.83;96958.47;5000180;28;20600;-78
2021/11/19 11:01:57;;;;;;;22.97;12.30;;;;;;;4.88;90.73;96959.81;4992618;28;20701;-79
2021/11/19 11:04:30;;;;;;;23.10;12.27;;;;;;;4.84;90.87;96959.97;4991057;28;20187;-78
2021/11/19 11:07:38;;;;;;;21.03;11.43;;;;;;;4.69;90.66;96955.59;4977048;28;20666;-81
2021/11/19 11:10:15;;;;;;;23.00;11.33;;;;;;;4.59;91.12;96945.84;4974072;28;20698;-79
2021/11/19 11:12:43;;;;;;;20.53;12.10;;;;;;;4.95;91.18;96943.16;4974318;28;20278;-80
2021/11/19 11:15:37;;;;;;;18.47;12.27;;;;;;;5.04;90.54;96937.53;4972962;28;20293;-80
2021/11/19 11:18:08;;;;;;;57.03;32.70;;;;;;;5.24;90.22;96945.03;4973171;28;20689;-80
2021/11/19 11:20:38;;;;;;;98.20;49.60;;;;;;;5.31;89.48;96936.06;4974129;28;20203;-81
2021/11/19 11:23:32;;;;;;;217.90;95.07;;;;;;;5.40;89.86;96938.16;4958184;28;20211;-80
2021/11/19 11:25:59;;;;;;;49.57;25.83;;;;;;;5.53;89.34;96933.16;4956556;28;20266;-80
2021/11/19 11:28:45;;;;;;;38.43;24.73;;;;;;;5.60;88.63;96925.94;4973308;28;20223;-80
2021/11/19 11:31:48;;;;;;;24.87;16.47;;;;;;;5.72;87.48;96930.41;4999535;28;20673;-80
2021/11/19 11:34:22;;;;;;;21.67;14.40;;;;;;;5.75;86.38;96932.00;4977700;28;20251;-79
2021/11/19 11:37:11;;;;;;;21.40;11.97;;;;;;;5.86;86.60;96929.66;4979839;28;20195;-79
2021/11/19 11:39:39;;;;;;;20.00;10.00;;;;;;;6.02;86.36;96922.78;5003954;28;20183;-80
2021/11/19 11:42:10;;;;;;;18.50;12.10;;;;;;;6.12;85.61;96923.09;5004529;28;20609;-78
2021/11/19 11:44:47;;;;;;;17.83;10.37;;;;;;;6.31;84.33;96922.88;4996991;28;20179;-81
2021/11/19 11:47:18;;;;;;;31.73;24.10;;;;;;;6.50;82.71;96919.13;5004437;28;20191;-78
2021/11/19 11:49:51;;;;;;;74.20;64.83;;;;;;;6.55;83.22;96913.72;4992743;28;20661;-78
2021/11/19 11:52:35;;;;;;;42.43;32.70;;;;;;;6.66;83.59;96913.09;4988108;28;20266;-78
2021/11/19 11:55:13;;;;;;;35.83;28.27;;;;;;;6.73;82.18;96910.06;5001431;28;20189;-79
2021/11/19 11:57:47;;;;;;;16.20;10.43;;;;;;;6.62;82.15;96903.84;5005376;28;20251;-79
2021/11/19 12:00:37;;;;;;;16.67;9.33;;;;;;;6.53;82.64;96907.78;5016618;28;20229;-80
2021/11/19 12:03:13;;;;;;;14.70;9.60;;;;;;;6.19;82.79;96911.50;5010062;28;20200;-78
2021/11/19 12:05:50;;;;;;;19.13;11.17;;;;;;;5.99;84.41;96904.88;5014491;28;20189;-77
2021/11/19 12:08:24;;;;;;;14.20;10.30;;;;;;;5.83;85.82;96906.63;5000959;28;20194;-80
2021/11/19 12:11:01;;;;;;;15.50;9.37;;;;;;;5.65;85.75;96913.63;5000352;28;20183;-80
2021/11/19 12:13:35;;;;;;;18.93;9.80;;;;;;;5.56;86.98;96904.66;4995202;28;20195;-80
2021/11/19 12:16:25;;;;;;;12.13;9.60;;;;;;;5.43;87.41;96908.00;4986693;28;20183;-79
2021/11/19 12:19:28;;;;;;;12.70;9.60;;;;;;;5.52;87.42;96902.34;4990591;28;20179;-81
2021/11/19 12:22:01;;;;;;;18.53;10.17;;;;;;;5.68;87.10;96898.84;5006092;28;20203;-80
2021/11/19 12:24:27;;;;;;;16.13;10.80;;;;;;;5.53;87.58;96898.84;5000133;28;20213;-79
2021/11/19 12:27:04;;;;;;;13.10;10.43;;;;;;;5.40;87.38;96901.25;5006456;28;20183;-79
2021/11/19 12:29:53;;;;;;;18.07;10.27;;;;;;;5.41;87.43;96892.63;5005270;28;20206;-79
2021/11/19 12:32:37;;;;;;;14.67;9.40;;;;;;;5.33;87.57;96895.59;5000941;28;20756;-80
2021/11/19 12:35:12;;;;;;;16.40;9.73;;;;;;;5.29;87.78;96904.41;4999428;28;20179;-80
2021/11/19 12:37:37;;;;;;;12.90;9.60;;;;;;;5.53;87.58;96893.69;5003040;28;20189;-80
2021/11/19 12:40:12;;;;;;;18.57;9.53;;;;;;;5.67;87.06;96897.19;5001101;28;20187;-80
2021/11/19 12:43:06;;;;;;;18.73;10.00;;;;;;;5.76;86.70;96890.69;4989089;28;20199;-79
2021/11/19 12:45:34;;;;;;;12.83;8.87;;;;;;;5.63;86.72;96880.22;5005164;28;20188;-78
2021/11/19 12:48:29;;;;;;;13.67;8.67;;;;;;;5.69;87.01;96887.59;4998586;28;20180;-79
2021/11/19 12:51:16;;;;;;;10.63;7.47;;;;;;;5.93;86.37;96872.56;4992003;28;20239;-79
2021/11/19 12:53:52;;;;;;;14.33;7.40;;;;;;;5.90;86.20;96872.72;4982672;28;20191;-79
2021/11/19 12:56:39;;;;;;;10.40;6.97;;;;;;;5.82;86.10;96874.84;5001993;28;20199;-80
2021/11/19 12:59:05;;;;;;;9.80;6.77;;;;;;;5.77;85.82;96878.63;4999494;28;20211;-79
2021/11/19 13:02:10;;;;;;;11.90;7.00;;;;;;;5.86;86.25;96871.22;5008831;28;20768;-80
2021/11/19 13:04:38;;;;;;;10.20;6.43;;;;;;;5.77;86.76;96876.88;4999521;28;20179;-79
2021/11/19 13:07:09;;;;;;;7.93;5.97;;;;;;;5.95;86.57;96872.47;5008886;28;20180;-80
2021/11/19 13:09:48;;;;;;;17.20;11.33;;;;;;;5.75;87.49;96870.97;5009797;28;20588;-80
2021/11/19 13:12:26;;;;;;;72.53;47.43;;;;;;;5.90;86.80;96866.69;4998548;28;20274;-80
2021/11/19 13:15:16;;;;;;;145.47;97.20;;;;;;;5.86;87.34;96878.09;5006795;28;20184;-79
2021/11/19 13:17:56;;;;;;;93.30;74.93;;;;;;;5.97;86.92;96874.03;5009406;28;20560;-79
2021/11/19 13:20:33;;;;;;;45.93;40.30;;;;;;;5.96;86.56;96863.81;5012628;28;20700;-79